Time;durP1;ratioP1;P1;durP2;ratioP2;P2;SDS_P1;SDS_P2;PMS_P1;PMS_P2;Temp;Humidity;BMP_temperature;BMP_pressure;BME280_temperature;BME280_humidity;BME280_pressure;Samples;Min_cycle;Max_cycle;Signal;HPM_P1;HPM_P2
2021/09/18 00:01:11;;;;;;;6.93;3.40;;;;;;;27.41;43.17;100986.22;144994;596;5002;-73
2021/09/18 00:03:37;;;;;;;4.97;3.33;;;;;;;27.40;43.17;100984.47;144994;592;5002;-74
2021/09/18 00:06:04;;;;;;;6.35;3.30;;;;;;;27.37;42.92;100989.91;144994;624;5002;-73
2021/09/18 00:08:30;;;;;;;6.07;3.55;;;;;;;27.38;43.25;100982.75;144994;565;5002;-74
2021/09/18 00:10:57;;;;;;;4.45;3.10;;;;;;;27.37;42.82;100989.91;144994;594;5002;-74
2021/09/18 00:13:23;;;;;;;4.43;3.42;;;;;;;27.37;42.83;100981.91;144994;564;5002;-74
2021/09/18 00:15:50;;;;;;;5.93;3.25;;;;;;;27.37;42.69;100968.56;144994;580;5002;-73
2021/09/18 00:18:16;;;;;;;7.40;3.20;;;;;;;27.37;42.50;100968.56;144994;695;5002;-73
2021/09/18 00:20:42;;;;;;;5.93;3.30;;;;;;;27.35;42.63;100973.09;144994;613;5002;-73
2021/09/18 00:23:09;;;;;;;6.97;3.72;;;;;;;27.35;42.32;100967.78;144994;585;5002;-73
2021/09/18 00:25:35;;;;;;;5.03;3.50;;;;;;;27.35;42.66;100967.78;144994;693;5002;-72
2021/09/18 00:28:02;;;;;;;5.05;3.37;;;;;;;27.35;42.26;100975.78;144994;563;5002;-71
2021/09/18 00:30:29;;;;;;;4.47;3.40;;;;;;;27.35;42.16;100973.09;144994;576;5002;-73
2021/09/18 00:32:55;;;;;;;4.97;3.50;;;;;;;27.36;42.23;100977.50;144994;581;5002;-72
2021/09/18 00:35:22;;;;;;;7.25;3.60;;;;;;;27.38;42.04;100982.75;144994;566;5002;-70
2021/09/18 00:37:49;;;;;;;8.32;3.50;;;;;;;27.37;42.47;100973.91;144994;578;5002;-73
2021/09/18 00:40:16;;;;;;;5.55;3.40;;;;;;;27.37;41.83;100981.03;144994;596;5002;-72
2021/09/18 00:42:42;;;;;;;5.18;3.10;;;;;;;27.37;42.00;100997.91;144994;586;5002;-73
2021/09/18 00:45:09;;;;;;;5.40;3.65;;;;;;;27.37;42.03;100987.25;144994;575;5002;-73
2021/09/18 00:47:36;;;;;;;6.87;3.10;;;;;;;27.33;41.55;100981.16;144994;588;5002;-73
2021/09/18 00:50:03;;;;;;;5.60;3.10;;;;;;;27.30;41.60;100972.37;144994;563;5002;-73
2021/09/18 00:52:30;;;;;;;4.55;3.30;;;;;;;27.29;41.85;100965.28;144994;580;5002;-72
2021/09/18 00:54:56;;;;;;;8.90;3.22;;;;;;;27.30;41.78;100973.28;144994;583;5002;-73
2021/09/18 00:57:23;;;;;;;5.35;3.58;;;;;;;27.31;41.57;100972.34;144994;565;5002;-73
2021/09/18 00:59:50;;;;;;;6.35;3.30;;;;;;;27.30;41.75;100986.59;144994;575;5002;-72
2021/09/18 01:02:16;;;;;;;4.87;3.28;;;;;;;27.30;41.35;100983.94;144994;594;5002;-74
2021/09/18 01:04:43;;;;;;;5.43;3.12;;;;;;;27.30;41.36;101005.25;144994;726;5002;-73
2021/09/18 01:07:10;;;;;;;4.75;3.20;;;;;;;27.30;41.36;101012.34;144994;585;5002;-73
2021/09/18 01:09:36;;;;;;;9.63;3.58;;;;;;;27.30;41.12;100999.91;144994;575;5002;-73
2021/09/18 01:12:06;;;;;;;5.15;3.42;;;;;;;27.30;41.01;101004.34;144994;585;5002;-73
2021/09/18 01:14:33;;;;;;;8.05;3.45;;;;;;;27.30;41.38;100988.38;144994;649;5002;-74
2021/09/18 01:17:00;;;;;;;5.37;3.25;;;;;;;27.23;40.55;100993.03;144994;687;5002;-74
2021/09/18 01:19:26;;;;;;;5.87;3.40;;;;;;;27.23;40.96;100992.16;144994;571;5002;-73
2021/09/18 01:21:53;;;;;;;6.32;3.62;;;;;;;27.21;40.60;100988.69;144994;577;5011;-73
2021/09/18 01:24:19;;;;;;;7.15;3.62;;;;;;;27.19;40.89;100990.50;144994;592;5002;-73
2021/09/18 01:26:46;;;;;;;6.40;3.50;;;;;;;27.19;40.89;100988.75;144994;587;5002;-74
2021/09/18 01:29:13;;;;;;;4.43;3.42;;;;;;;27.20;41.02;100986.94;144994;589;5002;-73
2021/09/18 01:31:45;;;;;;;5.80;3.50;;;;;;;27.21;41.02;100983.34;144994;578;5002;-74
2021/09/18 01:34:20;;;;;;;5.78;3.62;;;;;;;27.20;40.96;100979.81;144994;609;5002;-73
2021/09/18 01:36:48;;;;;;;7.07;3.58;;;;;;;27.12;40.01;100972.09;144994;578;5002;-73
2021/09/18 01:39:15;;;;;;;6.40;3.70;;;;;;;27.12;40.94;100979.22;144994;564;5002;-73
2021/09/18 01:41:44;;;;;;;6.60;3.37;;;;;;;27.12;41.05;100980.09;144994;589;5002;-72
2021/09/18 01:44:12;;;;;;;6.15;3.75;;;;;;;27.11;40.92;100981.00;144994;580;5002;-73
2021/09/18 01:46:38;;;;;;;9.85;3.95;;;;;;;27.13;40.76;100979.16;144994;578;5002;-73
2021/09/18 01:49:11;;;;;;;6.87;3.72;;;;;;;27.14;40.70;100970.25;144994;587;5002;-73
2021/09/18 01:51:52;;;;;;;6.15;3.80;;;;;;;27.15;40.40;100973.78;144994;655;5002;-74
2021/09/18 01:54:19;;;;;;;5.65;3.70;;;;;;;27.15;40.88;100969.34;144994;615;5002;-73
2021/09/18 01:56:45;;;;;;;7.85;4.40;;;;;;;27.13;40.35;100968.50;144994;672;5002;-71
2021/09/18 01:59:11;;;;;;;6.47;3.80;;;;;;;27.14;40.71;100966.72;144994;681;5002;-74
2021/09/18 02:01:38;;;;;;;5.68;3.90;;;;;;;27.13;40.72;100963.16;144994;658;5002;-74
2021/09/18 02:04:04;;;;;;;7.03;3.85;;;;;;;27.12;40.59;100957.91;144994;579;5002;-73
2021/09/18 02:06:31;;;;;;;8.77;4.80;;;;;;;27.12;40.52;100960.56;144994;631;5002;-73
2021/09/18 02:08:59;;;;;;;6.57;4.00;;;;;;;27.10;40.78;100954.41;144994;629;5002;-73
2021/09/18 02:11:25;;;;;;;8.88;3.90;;;;;;;27.11;40.72;100958.84;144994;586;5002;-74
2021/09/18 02:13:51;;;;;;;6.00;3.97;;;;;;;27.10;40.64;100949.09;144994;576;5002;-73
2021/09/18 02:16:18;;;;;;;9.27;3.90;;;;;;;27.10;40.57;100949.94;144994;579;5002;-74
2021/09/18 02:18:44;;;;;;;6.80;4.05;;;;;;;27.09;40.30;100950.91;144994;585;5002;-73
2021/09/18 02:21:11;;;;;;;6.15;3.83;;;;;;;27.10;40.41;100947.28;144994;658;5002;-73
2021/09/18 02:23:37;;;;;;;10.52;3.92;;;;;;;27.10;40.72;100944.63;144994;595;5002;-73
2021/09/18 02:26:04;;;;;;;4.60;3.40;;;;;;;27.11;40.33;100937.53;144994;572;5002;-74
2021/09/18 02:28:30;;;;;;;7.85;4.43;;;;;;;27.10;40.21;100935.78;144993;588;5002;-75
2021/09/18 02:30:57;;;;;;;6.12;3.53;;;;;;;27.09;40.75;100936.69;144994;650;5002;-74
2021/09/18 02:33:23;;;;;;;9.60;3.80;;;;;;;27.09;40.43;100931.34;144994;632;5002;-73
2021/09/18 02:35:49;;;;;;;6.72;3.58;;;;;;;27.08;40.04;100935.81;144994;570;5002;-74
2021/09/18 02:38:16;;;;;;;3.83;3.42;;;;;;;27.06;40.15;100932.34;144994;566;5002;-74
2021/09/18 02:40:42;;;;;;;5.97;3.35;;;;;;;27.08;39.71;100937.63;144994;585;5002;-74
2021/09/18 02:43:09;;;;;;;6.28;3.80;;;;;;;27.08;40.39;100945.63;144994;599;5002;-73
2021/09/18 02:45:36;;;;;;;6.07;3.50;;;;;;;27.05;40.22;100938.59;144994;596;5002;-74
2021/09/18 02:48:03;;;;;;;4.82;3.20;;;;;;;27.05;40.50;100935.94;144994;648;5002;-74
2021/09/18 02:50:29;;;;;;;5.03;3.22;;;;;;;27.05;39.75;100940.41;144994;607;5002;-74
2021/09/18 02:52:55;;;;;;;7.18;3.20;;;;;;;27.01;38.14;100933.44;144994;573;5002;-74
2021/09/18 02:55:22;;;;;;;5.95;3.33;;;;;;;26.98;39.91;100931.75;144993;621;5002;-73
2021/09/18 02:57:48;;;;;;;6.85;3.20;;;;;;;26.95;39.67;100927.41;144994;581;5002;-73
2021/09/18 03:00:15;;;;;;;6.07;3.30;;;;;;;26.94;39.67;100930.12;144994;564;5002;-74
2021/09/18 03:02:42;;;;;;;6.20;3.47;;;;;;;26.93;40.05;100931.03;144994;594;5002;-73
2021/09/18 03:05:09;;;;;;;6.40;3.50;;;;;;;26.95;39.91;100929.22;144994;594;5002;-73
2021/09/18 03:07:36;;;;;;;5.03;3.30;;;;;;;26.97;39.55;100935.34;144994;595;5002;-73
2021/09/18 03:10:04;;;;;;;5.05;3.20;;;;;;;26.99;40.15;100936.16;144994;731;5002;-72
2021/09/18 03:12:30;;;;;;;5.53;3.50;;;;;;;27.00;40.28;100937.91;144994;569;5002;-74
2021/09/18 03:14:57;;;;;;;7.87;3.55;;;;;;;27.00;39.63;100934.38;144994;565;5002;-73
2021/09/18 03:17:23;;;;;;;5.82;3.08;;;;;;;27.01;39.57;100941.44;144994;647;5002;-74
2021/09/18 03:19:51;;;;;;;6.35;4.03;;;;;;;27.00;39.85;100932.56;144994;569;5002;-73
2021/09/18 03:22:18;;;;;;;9.25;3.50;;;;;;;27.02;39.81;100937.84;144994;565;5002;-74
2021/09/18 03:24:45;;;;;;;6.50;3.45;;;;;;;27.02;39.84;100929.84;144994;563;5002;-73
2021/09/18 03:27:14;;;;;;;7.45;3.50;;;;;;;27.03;39.50;100931.56;144993;578;5002;-73
2021/09/18 03:29:41;;;;;;;7.57;3.53;;;;;;;27.02;39.66;100936.03;144993;590;5002;-73
2021/09/18 03:32:08;;;;;;;6.60;3.80;;;;;;;27.03;39.77;100939.56;144994;641;5002;-73
2021/09/18 03:34:34;;;;;;;5.28;3.50;;;;;;;27.02;39.65;100941.38;144994;570;5002;-72
2021/09/18 03:37:01;;;;;;;5.93;3.50;;;;;;;27.02;39.26;100936.03;144994;596;5003;-72
2021/09/18 03:39:27;;;;;;;6.40;3.92;;;;;;;26.99;39.60;100941.47;144994;665;5002;-74
2021/09/18 03:41:54;;;;;;;6.87;3.95;;;;;;;26.95;39.57;100948.72;144994;579;5002;-74
2021/09/18 03:44:20;;;;;;;8.45;4.03;;;;;;;26.93;39.86;100945.25;144994;687;5003;-71
2021/09/18 03:46:46;;;;;;;12.07;4.40;;;;;;;26.90;39.59;100944.47;144994;683;5002;-72
2021/09/18 03:49:13;;;;;;;7.80;4.22;;;;;;;26.89;39.60;100940.94;144994;627;5002;-73
2021/09/18 03:51:39;;;;;;;6.50;4.12;;;;;;;26.88;39.49;100933.84;144994;630;5002;-73
2021/09/18 03:54:06;;;;;;;10.65;4.25;;;;;;;26.89;39.63;100934.75;144994;589;5002;-73
2021/09/18 03:56:32;;;;;;;5.78;4.25;;;;;;;26.89;39.53;100938.28;144994;652;5002;-73
2021/09/18 03:58:59;;;;;;;6.25;3.97;;;;;;;26.88;39.59;100939.19;144994;912;5002;-73
2021/09/18 04:01:25;;;;;;;11.95;4.57;;;;;;;26.89;39.42;100938.28;144994;643;5002;-72
2021/09/18 04:03:52;;;;;;;7.05;4.37;;;;;;;26.89;39.46;100932.09;144994;677;5002;-74
2021/09/18 04:06:18;;;;;;;11.77;4.75;;;;;;;26.88;39.67;100933.00;144994;594;5002;-74
2021/09/18 04:08:45;;;;;;;13.77;5.62;;;;;;;26.84;39.66;100934.03;144994;579;5002;-73
2021/09/18 04:11:11;;;;;;;7.70;4.70;;;;;;;26.83;39.62;100935.81;144993;576;5002;-73
2021/09/18 04:13:38;;;;;;;12.15;4.70;;;;;;;26.82;39.33;100934.09;144994;676;5002;-74
2021/09/18 04:16:04;;;;;;;9.63;4.53;;;;;;;26.82;39.29;100933.19;144994;727;5002;-73
2021/09/18 04:18:31;;;;;;;8.00;4.60;;;;;;;26.81;39.58;100931.50;144994;572;5002;-71
2021/09/18 04:20:57;;;;;;;10.73;4.30;;;;;;;26.81;39.53;100942.13;144994;594;5002;-73
2021/09/18 04:23:24;;;;;;;9.65;4.78;;;;;;;26.80;39.62;100941.25;144994;683;4567;-74
2021/09/18 04:25:50;;;;;;;8.55;4.60;;;;;;;26.80;39.43;100943.91;144994;679;4572;-73
2021/09/18 04:28:17;;;;;;;6.18;4.32;;;;;;;26.79;39.94;100948.38;144994;570;4571;-75
2021/09/18 04:30:43;;;;;;;9.10;4.82;;;;;;;26.78;39.64;100949.28;144992;614;6002;-75
2021/09/18 04:33:10;;;;;;;12.68;5.03;;;;;;;26.78;39.70;100959.94;144992;579;6002;-74
2021/09/18 04:35:36;;;;;;;9.82;4.87;;;;;;;26.78;39.24;100951.94;144992;563;6002;-73
2021/09/18 04:38:03;;;;;;;8.30;4.72;;;;;;;26.80;39.71;100959.88;144992;606;6002;-73
2021/09/18 04:40:29;;;;;;;10.23;5.32;;;;;;;26.79;39.33;100956.38;144992;577;6002;-73
2021/09/18 04:42:56;;;;;;;7.60;4.90;;;;;;;26.80;39.42;100957.22;144992;592;6002;-73
2021/09/18 04:45:22;;;;;;;8.50;5.37;;;;;;;26.81;39.72;100958.97;144992;664;6002;-74
2021/09/18 04:47:49;;;;;;;9.52;5.10;;;;;;;26.83;39.44;100969.56;144992;593;6002;-72
2021/09/18 04:50:15;;;;;;;11.35;5.20;;;;;;;26.84;39.38;100964.19;144992;577;6002;-73
2021/09/18 04:52:41;;;;;;;9.15;4.82;;;;;;;26.86;39.25;100957.03;144991;672;6002;-74
2021/09/18 04:55:08;;;;;;;9.55;5.10;;;;;;;26.85;39.48;100954.41;144992;577;6002;-73
2021/09/18 04:57:35;;;;;;;12.73;5.20;;;;;;;26.85;39.36;100946.41;144992;569;6002;-72
2021/09/18 05:00:02;;;;;;;10.60;5.25;;;;;;;26.86;39.63;100951.69;144992;571;6002;-73
2021/09/18 05:02:28;;;;;;;9.88;5.30;;;;;;;26.88;39.75;100952.50;144992;751;6002;-74
2021/09/18 05:04:54;;;;;;;11.32;4.70;;;;;;;26.89;39.90;100956.91;144992;599;6002;-74
2021/09/18 05:07:22;;;;;;;10.52;5.00;;;;;;;26.91;39.71;100959.53;144992;578;6002;-73
2021/09/18 05:09:48;;;;;;;11.05;4.55;;;;;;;26.91;40.16;100955.06;144992;572;6002;-73
2021/09/18 05:12:15;;;;;;;10.13;5.30;;;;;;;26.95;39.83;100958.50;144992;570;6002;-73
2021/09/18 05:14:41;;;;;;;11.70;4.90;;;;;;;26.99;40.09;100960.13;144992;599;6002;-72
2021/09/18 05:17:08;;;;;;;10.43;5.12;;;;;;;27.02;39.76;100957.34;144992;610;6002;-74
2021/09/18 05:19:34;;;;;;;9.98;5.43;;;;;;;27.05;39.75;100959.91;144992;593;6002;-73
2021/09/18 05:22:00;;;;;;;13.30;5.60;;;;;;;27.11;39.82;100958.84;144991;578;6002;-74
2021/09/18 05:24:29;;;;;;;8.35;5.25;;;;;;;27.17;39.80;100963.06;144992;625;6002;-74
2021/09/18 05:26:56;;;;;;;9.05;4.80;;;;;;;27.20;40.05;100962.94;144992;575;6002;-73
2021/09/18 05:29:22;;;;;;;8.63;5.30;;;;;;;27.25;39.70;100968.97;144992;640;6002;-72
2021/09/18 05:31:49;;;;;;;11.12;6.03;;;;;;;27.25;39.70;100966.31;144992;657;6002;-73
2021/09/18 05:34:16;;;;;;;10.20;5.35;;;;;;;27.25;39.95;100964.53;144992;599;6002;-74
2021/09/18 05:36:42;;;;;;;8.98;5.55;;;;;;;27.24;39.96;100960.13;144992;559;6002;-74
2021/09/18 05:39:09;;;;;;;12.10;5.43;;;;;;;27.18;40.13;100967.47;144992;573;6002;-73
2021/09/18 05:41:36;;;;;;;11.10;6.03;;;;;;;27.18;40.12;100962.16;144992;572;6002;-73
2021/09/18 05:44:02;;;;;;;12.00;5.65;;;;;;;27.21;40.25;100960.22;144992;569;6002;-73
2021/09/18 05:46:28;;;;;;;10.45;5.00;;;;;;;27.26;40.18;100970.72;144992;591;6002;-73
2021/09/18 05:48:55;;;;;;;8.25;4.78;;;;;;;27.30;40.20;100967.03;144992;595;6002;-72
2021/09/18 05:51:21;;;;;;;12.43;5.05;;;;;;;27.34;40.03;100968.69;144992;592;6002;-73
2021/09/18 05:53:48;;;;;;;11.80;5.40;;;;;;;27.41;39.96;100972.87;144992;594;6002;-73
2021/09/18 05:56:14;;;;;;;10.73;4.32;;;;;;;27.47;40.26;100974.44;144992;591;6002;-73
2021/09/18 05:58:41;;;;;;;7.82;4.85;;;;;;;27.52;40.04;100967.12;144992;685;6002;-73
2021/09/18 06:01:07;;;;;;;10.90;4.50;;;;;;;27.59;39.95;100965.13;144992;576;6002;-73
2021/09/18 06:03:35;;;;;;;11.10;4.62;;;;;;;27.64;40.23;100966.69;144992;572;6002;-72
2021/09/18 06:06:02;;;;;;;12.27;4.85;;;;;;;27.71;40.06;100972.66;144992;749;6002;-72
2021/09/18 06:08:29;;;;;;;9.55;5.00;;;;;;;27.76;39.90;100976.03;144992;586;6002;-72
2021/09/18 06:10:55;;;;;;;11.00;5.37;;;;;;;27.83;39.79;100976.66;144992;625;6002;-73
2021/09/18 06:13:22;;;;;;;9.35;4.87;;;;;;;27.90;39.90;100982.63;144992;577;6002;-73
2021/09/18 06:15:48;;;;;;;12.02;5.10;;;;;;;27.94;39.73;100989.59;144992;587;6002;-71
2021/09/18 06:18:15;;;;;;;9.27;5.32;;;;;;;28.01;39.76;100991.12;144992;577;6002;-73
2021/09/18 06:20:41;;;;;;;16.42;5.35;;;;;;;28.08;39.76;100989.97;144992;623;6002;-74
2021/09/18 06:23:07;;;;;;;11.12;4.82;;;;;;;28.14;39.71;100995.06;144992;634;6002;-73
2021/09/18 06:25:34;;;;;;;9.55;4.82;;;;;;;28.21;39.73;100990.34;144992;571;6002;-72
2021/09/18 06:28:00;;;;;;;10.68;5.00;;;;;;;28.29;39.47;100998.06;144992;582;6003;-73
2021/09/18 06:30:27;;;;;;;14.27;5.20;;;;;;;28.37;39.74;100998.59;144992;642;6002;-72
2021/09/18 06:32:53;;;;;;;13.27;5.70;;;;;;;28.44;39.88;100993.88;144992;592;6002;-73
2021/09/18 06:35:20;;;;;;;10.13;5.50;;;;;;;28.50;39.48;100997.16;144992;577;6002;-75
2021/09/18 06:37:48;;;;;;;18.08;8.90;;;;;;;28.54;39.04;100996.13;144992;582;6002;-71
2021/09/18 06:40:18;;;;;;;15.85;8.07;;;;;;;28.62;39.54;101001.19;144992;636;6002;-71
2021/09/18 06:42:44;;;;;;;15.18;8.07;;;;;;;28.71;39.56;101000.78;144992;574;6002;-72
2021/09/18 06:45:11;;;;;;;15.07;6.60;;;;;;;28.82;38.94;101011.03;144992;698;6002;-73
2021/09/18 06:47:38;;;;;;;14.65;6.28;;;;;;;28.91;39.03;101012.44;144992;585;6002;-71
2021/09/18 06:50:06;;;;;;;14.45;6.30;;;;;;;29.00;38.81;101003.16;144992;592;6002;-71
2021/09/18 06:52:33;;;;;;;15.07;6.82;;;;;;;29.07;38.46;101007.31;144992;575;6002;-73
2021/09/18 06:54:59;;;;;;;18.37;6.57;;;;;;;29.12;39.04;101007.97;144992;584;6002;-71
2021/09/18 06:57:26;;;;;;;10.65;6.22;;;;;;;29.25;38.91;101014.56;144992;598;6002;-74
2021/09/18 06:59:52;;;;;;;12.57;6.30;;;;;;;29.35;38.24;101012.38;144992;583;6002;-72
2021/09/18 07:02:19;;;;;;;9.93;5.90;;;;;;;29.45;37.34;101008.34;144992;702;6002;-74
2021/09/18 07:04:45;;;;;;;15.07;7.05;;;;;;;29.55;38.45;101008.78;144992;572;6002;-73
2021/09/18 07:07:12;;;;;;;12.70;6.15;;;;;;;29.69;38.17;101007.31;144992;591;6002;-74
2021/09/18 07:09:38;;;;;;;14.05;5.62;;;;;;;29.85;38.53;101009.22;144992;627;6002;-70
2021/09/18 07:12:05;;;;;;;10.70;5.18;;;;;;;30.01;38.17;101006.69;144992;564;6002;-70
2021/09/18 07:14:32;;;;;;;9.07;4.80;;;;;;;30.19;37.80;100998.72;144992;612;6002;-73
2021/09/18 07:16:58;;;;;;;13.88;5.28;;;;;;;30.37;38.30;101000.53;144992;585;6002;-74
2021/09/18 07:19:25;;;;;;;7.72;4.22;;;;;;;30.55;38.21;101003.28;144992;590;6002;-74
2021/09/18 07:21:51;;;;;;;11.23;4.65;;;;;;;30.71;38.25;101006.91;144992;570;6002;-74
2021/09/18 07:24:18;;;;;;;9.65;3.80;;;;;;;30.88;37.21;101000.69;144992;591;6002;-71
2021/09/18 07:26:44;;;;;;;11.77;4.30;;;;;;;31.04;37.41;100994.59;144992;633;6002;-72
2021/09/18 07:29:11;;;;;;;9.23;4.43;;;;;;;31.20;37.79;100987.47;144992;630;6002;-74
2021/09/18 07:31:37;;;;;;;6.30;3.75;;;;;;;31.36;37.32;100990.22;144992;572;6002;-76
2021/09/18 07:34:03;;;;;;;9.82;4.22;;;;;;;31.51;37.42;100988.50;144992;613;6002;-74
2021/09/18 07:36:30;;;;;;;7.78;3.85;;;;;;;31.67;37.55;100990.41;144992;591;6002;-74
2021/09/18 07:38:56;;;;;;;10.85;3.60;;;;;;;31.83;37.22;100983.22;144992;574;6002;-81
2021/09/18 07:41:23;;;;;;;8.02;3.42;;;;;;;32.03;37.00;100987.50;144992;570;6002;-73
2021/09/18 07:43:49;;;;;;;9.15;3.30;;;;;;;32.21;36.72;100990.13;144992;665;6002;-70
2021/09/18 07:46:16;;;;;;;10.70;3.78;;;;;;;32.33;36.96;101006.41;144992;648;6002;-75
2021/09/18 07:48:42;;;;;;;7.82;3.00;;;;;;;32.44;36.88;101008.47;144992;630;6002;-71
2021/09/18 07:51:09;;;;;;;6.43;3.35;;;;;;;32.56;36.26;101004.19;144992;680;6002;-74
2021/09/18 07:53:35;;;;;;;7.90;2.80;;;;;;;32.67;36.51;101007.16;144992;571;6002;-73
2021/09/18 07:56:01;;;;;;;7.00;2.78;;;;;;;32.79;36.31;101002.91;144992;587;6002;-74
2021/09/18 07:58:28;;;;;;;10.02;3.22;;;;;;;32.87;35.74;101005.12;144991;564;6002;-75
2021/09/18 08:00:54;;;;;;;20.20;4.22;;;;;;;32.95;34.58;100991.25;144992;678;6002;-90
2021/09/18 08:03:21;;;;;;;12.13;3.33;;;;;;;33.04;33.80;101001.41;144992;601;6002;-73
2021/09/18 08:05:47;;;;;;;10.25;3.50;;;;;;;33.11;35.70;101004.62;144992;572;6002;-72
2021/09/18 08:08:14;;;;;;;8.15;3.90;;;;;;;33.19;35.53;101003.22;144992;574;6002;-68
2021/09/18 08:10:40;;;;;;;10.20;2.97;;;;;;;33.28;32.11;101001.81;144992;577;6002;-69
2021/09/18 08:13:06;;;;;;;9.23;3.25;;;;;;;33.36;34.34;101009.38;144991;605;6002;-71
2021/09/18 08:15:33;;;;;;;8.15;4.30;;;;;;;33.37;36.01;101005.72;144992;589;6002;-71
2021/09/18 08:18:00;;;;;;;8.90;3.40;;;;;;;33.32;34.98;101006.00;144992;671;6002;-68
2021/09/18 08:20:26;;;;;;;8.18;2.80;;;;;;;33.30;31.05;101004.38;144992;755;6002;-69
2021/09/18 08:22:53;;;;;;;16.33;3.67;;;;;;;33.14;34.67;101005.28;144992;609;6002;-70
2021/09/18 08:25:19;;;;;;;7.82;3.67;;;;;;;32.96;34.70;101012.63;144992;745;6002;-71
2021/09/18 08:27:46;;;;;;;8.48;3.60;;;;;;;32.75;34.63;101013.91;144992;566;6002;-70
2021/09/18 08:30:13;;;;;;;9.70;3.53;;;;;;;32.69;34.56;101013.34;144992;647;6002;-73
2021/09/18 08:32:40;;;;;;;8.00;3.40;;;;;;;32.71;34.28;101008.72;144992;620;6002;-71
2021/09/18 08:35:08;;;;;;;12.07;3.35;;;;;;;32.75;31.55;101012.09;144992;602;6002;-74
2021/09/18 08:37:34;;;;;;;7.10;2.90;;;;;;;32.77;34.58;101004.81;144992;596;6002;-71
2021/09/18 08:40:00;;;;;;;9.38;3.20;;;;;;;32.80;32.13;100999.22;144992;590;6002;-71
2021/09/18 08:42:27;;;;;;;9.75;3.00;;;;;;;32.79;34.58;101016.34;144992;668;6002;-71
2021/09/18 08:44:53;;;;;;;8.50;3.28;;;;;;;32.77;33.78;101014.69;144992;611;6002;-72
2021/09/18 08:47:23;;;;;;;5.55;2.75;;;;;;;32.83;28.96;101008.94;144992;594;6002;-71
2021/09/18 08:49:50;;;;;;;7.93;3.10;;;;;;;32.95;31.75;101004.69;144992;564;6002;-72
2021/09/18 08:52:17;;;;;;;7.37;2.80;;;;;;;33.10;33.59;101014.50;144991;564;6002;-72
2021/09/18 08:54:43;;;;;;;8.75;3.20;;;;;;;33.23;32.79;101018.22;144992;583;6002;-71
2021/09/18 08:57:11;;;;;;;11.05;3.30;;;;;;;33.20;33.29;101009.44;144992;581;6002;-71
2021/09/18 08:59:39;;;;;;;9.98;3.05;;;;;;;33.07;34.28;101004.81;144992;648;6002;-71
2021/09/18 09:02:27;;;;;;;9.27;2.90;;;;;;;32.89;33.86;101000.53;144992;604;6002;-71
2021/09/18 09:05:10;;;;;;;9.18;2.97;;;;;;;32.62;28.52;101008.38;144992;591;6002;-71
2021/09/18 09:07:37;;;;;;;8.80;3.20;;;;;;;32.47;29.41;101002.03;144992;617;6002;-72
2021/09/18 09:10:05;;;;;;;12.23;3.78;;;;;;;32.32;31.52;101003.81;144992;563;6002;-71
2021/09/18 09:12:37;;;;;;;12.75;3.10;;;;;;;32.24;32.68;101008.75;144992;600;6002;-71
2021/09/18 09:15:22;;;;;;;7.90;3.10;;;;;;;32.18;32.42;101007.25;144992;585;6002;-71
2021/09/18 09:17:52;;;;;;;9.60;2.78;;;;;;;32.11;30.09;100995.16;144992;587;6002;-72
2021/09/18 09:20:27;;;;;;;9.25;3.10;;;;;;;32.07;32.62;100986.37;144992;569;6002;-71
2021/09/18 09:22:53;;;;;;;12.50;3.08;;;;;;;32.00;32.92;100984.97;144992;599;6002;-72
2021/09/18 09:25:38;;;;;;;8.13;3.10;;;;;;;31.94;29.89;100980.81;144992;569;6002;-72
2021/09/18 09:28:22;;;;;;;;;;;;;;;31.91;32.26;100985.50;144997;913;6002;-71
2021/09/18 09:30:49;;;;;;;8.63;2.75;;;;;;;31.81;29.32;100974.41;144997;599;6000;-71
2021/09/18 09:33:15;;;;;;;8.48;2.95;;;;;;;31.82;32.63;100981.53;144992;664;6002;-71
2021/09/18 09:35:43;;;;;;;9.88;3.80;;;;;;;31.80;29.68;100962.81;144992;629;6002;-68
2021/09/18 09:38:11;;;;;;;11.75;3.17;;;;;;;31.74;31.52;100973.03;144992;569;6002;-77
2021/09/18 09:40:44;;;;;;;10.88;3.47;;;;;;;31.78;33.09;100969.22;144992;564;6002;-78
2021/09/18 09:43:13;;;;;;;13.88;4.47;;;;;;;31.78;31.23;100963.84;144992;579;6002;-77
2021/09/18 09:45:40;;;;;;;13.80;3.22;;;;;;;31.86;32.66;100963.41;144992;642;6002;-75
2021/09/18 09:48:14;;;;;;;14.43;3.70;;;;;;;31.87;30.69;100959.78;144992;575;6002;-77
2021/09/18 09:50:55;;;;;;;18.15;3.62;;;;;;;31.87;31.21;100963.34;144992;564;6002;-78
2021/09/18 09:53:31;;;;;;;10.45;2.92;;;;;;;31.86;30.42;100950.00;144992;657;6002;-74
2021/09/18 09:55:57;;;;;;;13.52;3.03;;;;;;;31.82;31.59;100938.56;144992;569;6010;-77
2021/09/18 09:58:25;;;;;;;11.70;2.62;;;;;;;31.82;31.95;100941.25;144992;598;6002;-73
2021/09/18 10:00:53;;;;;;;12.25;2.78;;;;;;;31.84;31.62;100936.66;144992;663;6002;-79
2021/09/18 10:03:24;;;;;;;13.98;2.70;;;;;;;31.89;28.96;100928.34;144992;572;6002;-73
2021/09/18 10:05:52;;;;;;;26.55;3.33;;;;;;;32.06;29.52;100933.62;144992;566;6002;-84
2021/09/18 10:08:24;;;;;;;26.98;3.70;;;;;;;32.36;28.08;100928.34;144992;587;6002;-83
2021/09/18 10:10:52;;;;;;;12.40;2.75;;;;;;;32.60;29.30;100924.31;144992;594;6002;-83
2021/09/18 10:13:23;;;;;;;12.90;3.42;;;;;;;32.84;30.48;100922.84;144992;602;6002;-82
2021/09/18 10:15:50;;;;;;;9.68;2.45;;;;;;;33.02;27.40;100917.28;144992;578;6002;-84
2021/09/18 10:18:17;;;;;;;10.10;2.22;;;;;;;33.18;26.33;100909.19;144992;574;6002;-84
2021/09/18 10:23:37;;;;;;;10.77;2.25;;;;;;;33.43;26.56;100906.66;144992;568;6004;-82
2021/09/18 10:26:14;;;;;;;11.95;2.50;;;;;;;33.57;27.69;100905.78;144991;570;6000;-83
2021/09/18 10:28:47;;;;;;;9.43;2.60;;;;;;;33.72;27.22;100893.19;144992;623;6002;-88
2021/09/18 10:31:17;;;;;;;13.80;2.92;;;;;;;33.83;28.22;100872.78;144991;600;6002;-86
2021/09/18 10:33:49;;;;;;;12.95;2.08;;;;;;;33.94;27.21;100876.50;144992;571;6002;-77
2021/09/18 10:36:42;;;;;;;11.55;2.40;;;;;;;33.99;25.58;100874.34;144991;587;6002;-88
2021/09/18 10:39:19;;;;;;;15.63;2.60;;;;;;;34.10;27.62;100864.72;144992;568;6004;-87
2021/09/18 10:41:55;;;;;;;8.65;2.67;;;;;;;34.19;27.08;100866.78;144992;578;6004;-86
2021/09/18 10:44:24;;;;;;;8.88;2.47;;;;;;;34.32;24.76;100858.75;144993;684;6000;-80
2021/09/18 10:47:02;;;;;;;9.93;2.35;;;;;;;34.36;26.68;100854.88;144992;591;6002;-81
2021/09/18 10:49:46;;;;;;;8.45;2.17;;;;;;;34.39;27.17;100848.44;144993;677;6002;-80
2021/09/18 10:52:24;;;;;;;7.62;2.15;;;;;;;34.29;24.99;100842.81;144993;761;6000;-75
2021/09/18 10:55:22;;;;;;;9.30;2.37;;;;;;;34.23;25.93;100848.59;144993;573;6002;-80
2021/09/18 10:58:09;;;;;;;10.32;2.65;;;;;;;34.24;25.76;100851.19;144993;611;6000;-78
2021/09/18 11:00:40;;;;;;;8.80;3.10;;;;;;;34.20;25.88;100846.94;144993;585;6000;-74
2021/09/18 11:03:07;;;;;;;11.82;2.40;;;;;;;34.19;26.61;100847.94;144993;600;6003;-71
2021/09/18 11:05:52;;;;;;;11.20;2.25;;;;;;;34.08;26.36;100845.97;144993;656;6002;-70
2021/09/18 11:08:23;;;;;;;10.77;2.10;;;;;;;33.99;24.97;100846.56;144993;583;6000;-71
2021/09/18 11:10:52;;;;;;;9.80;2.37;;;;;;;33.93;24.92;100842.47;144993;584;6003;-72
2021/09/18 11:13:39;;;;;;;9.73;2.10;;;;;;;33.86;26.55;100848.38;144993;576;6002;-74
2021/09/18 11:16:25;;;;;;;12.15;1.95;;;;;;;33.77;24.49;100839.06;144992;615;6000;-81
2021/09/18 11:18:57;;;;;;;8.45;1.73;;;;;;;33.73;26.00;100827.63;144992;611;6002;-80
2021/09/18 11:21:31;;;;;;;13.62;2.47;;;;;;;33.66;26.35;100841.56;144992;594;6002;-81
2021/09/18 11:24:20;;;;;;;7.30;1.62;;;;;;;33.75;26.06;100835.59;144992;575;6002;-80
2021/09/18 11:26:56;;;;;;;8.63;1.48;;;;;;;33.88;26.58;100841.91;144992;573;6002;-82
2021/09/18 11:29:34;;;;;;;9.18;1.92;;;;;;;33.97;24.98;100849.38;144993;599;6002;-82
2021/09/18 11:32:10;;;;;;;10.98;4.35;;;;;;;34.07;26.37;100838.84;144993;595;6002;-82
2021/09/18 11:34:58;;;;;;;6.22;1.70;;;;;;;34.07;25.43;100844.22;144993;594;6002;-82
2021/09/18 11:37:35;;;;;;;6.12;1.58;;;;;;;34.13;25.80;100826.78;144993;598;6000;-80
2021/09/18 11:40:10;;;;;;;8.48;2.00;;;;;;;34.17;24.07;100826.47;144993;589;6002;-84